Terminal Aerodrome Forecast
Issued by NWS

Home | Current Version | Previous Version | Text Only | Print | Product List | Glossary On
Versions: 1 2 3 4 5 6 7 8 9 10 11 12 13 14 15 16 17 18 19 20 21 22 23 24 25 26 27
000
FTUS44 KLIX 270524
TAFMSY
TAF
KMSY 270524Z 2706/2806 00000KT P6SM FEW015 BKN250
     FM271400 10010KT P6SM VCTS BKN015CB
     FM271800 11012KT 4SM SHRA OVC025
      TEMPO 2719/2723 VRB25G35KT +TSRA OVC010CB
     FM272300 06011KT 4SM SHRA OVC015
     FM280500 10016KT 6SM -SHRA OVC015=

USA.gov is the U.S. government's official web portal to all federal, state and local government web resources and services.